sensor_id;sensor_type;location;lat;lon;timestamp;P1;durP1;ratioP1;P2;durP2;ratioP2
76752;SDS011;65687;51.308;16.916;2023-06-01T00:03:53;6.60;;;3.80;;
76752;SDS011;65687;51.308;16.916;2023-06-01T00:13:58;6.30;;;3.00;;
76752;SDS011;65687;51.308;16.916;2023-06-01T00:18:59;4.50;;;3.20;;
76752;SDS011;65687;51.308;16.916;2023-06-01T00:24:04;6.30;;;3.90;;
76752;SDS011;65687;51.308;16.916;2023-06-01T00:29:06;6.00;;;3.70;;
76752;SDS011;65687;51.308;16.916;2023-06-01T00:34:08;5.80;;;4.10;;
76752;SDS011;65687;51.308;16.916;2023-06-01T00:39:09;8.20;;;4.30;;
76752;SDS011;65687;51.308;16.916;2023-06-01T00:44:11;9.00;;;4.30;;
76752;SDS011;65687;51.308;16.916;2023-06-01T00:49:13;6.20;;;3.80;;
76752;SDS011;65687;51.308;16.916;2023-06-01T00:54:14;11.50;;;5.20;;
76752;SDS011;65687;51.308;16.916;2023-06-01T00:59:16;6.50;;;4.00;;
76752;SDS011;65687;51.308;16.916;2023-06-01T01:04:18;5.90;;;3.90;;
76752;SDS011;65687;51.308;16.916;2023-06-01T01:14:48;6.10;;;3.90;;
76752;SDS011;65687;51.308;16.916;2023-06-01T01:20:06;7.10;;;4.10;;
76752;SDS011;65687;51.308;16.916;2023-06-01T01:30:22;7.70;;;4.60;;
76752;SDS011;65687;51.308;16.916;2023-06-01T01:35:29;7.20;;;3.90;;
76752;SDS011;65687;51.308;16.916;2023-06-01T01:40:32;7.50;;;4.20;;
76752;SDS011;65687;51.308;16.916;2023-06-01T01:45:34;7.90;;;4.70;;
76752;SDS011;65687;51.308;16.916;2023-06-01T01:50:38;5.80;;;4.10;;
76752;SDS011;65687;51.308;16.916;2023-06-01T01:55:47;7.10;;;4.10;;
76752;SDS011;65687;51.308;16.916;2023-06-01T02:00:50;10.00;;;5.00;;
76752;SDS011;65687;51.308;16.916;2023-06-01T02:05:53;10.00;;;4.60;;
76752;SDS011;65687;51.308;16.916;2023-06-01T02:10:55;10.20;;;4.60;;
76752;SDS011;65687;51.308;16.916;2023-06-01T02:15:56;7.30;;;4.60;;
76752;SDS011;65687;51.308;16.916;2023-06-01T02:20:58;7.20;;;4.60;;
76752;SDS011;65687;51.308;16.916;2023-06-01T02:25:59;10.20;;;4.50;;
76752;SDS011;65687;51.308;16.916;2023-06-01T02:31:01;7.70;;;4.10;;
76752;SDS011;65687;51.308;16.916;2023-06-01T02:36:03;7.90;;;4.80;;
76752;SDS011;65687;51.308;16.916;2023-06-01T02:41:05;10.20;;;4.60;;
76752;SDS011;65687;51.308;16.916;2023-06-01T02:46:06;10.40;;;5.00;;
76752;SDS011;65687;51.308;16.916;2023-06-01T02:51:08;9.80;;;4.20;;
76752;SDS011;65687;51.308;16.916;2023-06-01T02:56:10;8.20;;;4.30;;
76752;SDS011;65687;51.308;16.916;2023-06-01T03:01:12;8.30;;;4.40;;
76752;SDS011;65687;51.308;16.916;2023-06-01T03:06:14;7.00;;;4.50;;
76752;SDS011;65687;51.308;16.916;2023-06-01T03:11:18;8.30;;;4.40;;
76752;SDS011;65687;51.308;16.916;2023-06-01T03:16:20;8.20;;;4.90;;
76752;SDS011;65687;51.308;16.916;2023-06-01T03:21:21;10.10;;;4.80;;
76752;SDS011;65687;51.308;16.916;2023-06-01T03:26:23;9.00;;;4.60;;
76752;SDS011;65687;51.308;16.916;2023-06-01T03:31:26;7.80;;;4.40;;
76752;SDS011;65687;51.308;16.916;2023-06-01T03:36:28;6.90;;;4.60;;
76752;SDS011;65687;51.308;16.916;2023-06-01T03:41:30;8.80;;;4.60;;
76752;SDS011;65687;51.308;16.916;2023-06-01T03:46:31;7.40;;;4.20;;
76752;SDS011;65687;51.308;16.916;2023-06-01T03:51:33;7.80;;;4.80;;
76752;SDS011;65687;51.308;16.916;2023-06-01T03:56:35;6.60;;;4.40;;
76752;SDS011;65687;51.308;16.916;2023-06-01T04:01:37;5.80;;;3.70;;
76752;SDS011;65687;51.308;16.916;2023-06-01T04:06:40;6.40;;;4.30;;
76752;SDS011;65687;51.308;16.916;2023-06-01T04:11:46;9.60;;;4.50;;
76752;SDS011;65687;51.308;16.916;2023-06-01T04:16:47;5.60;;;3.60;;
76752;SDS011;65687;51.308;16.916;2023-06-01T04:21:49;9.80;;;4.40;;
76752;SDS011;65687;51.308;16.916;2023-06-01T04:26:50;7.10;;;4.10;;
76752;SDS011;65687;51.308;16.916;2023-06-01T04:31:52;6.90;;;4.60;;
76752;SDS011;65687;51.308;16.916;2023-06-01T04:36:56;9.30;;;4.90;;
76752;SDS011;65687;51.308;16.916;2023-06-01T04:41:58;7.40;;;4.70;;
76752;SDS011;65687;51.308;16.916;2023-06-01T04:46:59;9.80;;;4.90;;
76752;SDS011;65687;51.308;16.916;2023-06-01T04:52:05;8.70;;;5.40;;
76752;SDS011;65687;51.308;16.916;2023-06-01T04:57:06;9.60;;;4.90;;
76752;SDS011;65687;51.308;16.916;2023-06-01T05:02:09;7.00;;;4.40;;
76752;SDS011;65687;51.308;16.916;2023-06-01T05:07:11;13.70;;;5.00;;
76752;SDS011;65687;51.308;16.916;2023-06-01T05:12:13;8.60;;;4.50;;
76752;SDS011;65687;51.308;16.916;2023-06-01T05:17:14;7.60;;;4.70;;
76752;SDS011;65687;51.308;16.916;2023-06-01T05:22:16;6.70;;;4.90;;
76752;SDS011;65687;51.308;16.916;2023-06-01T05:27:17;8.10;;;4.30;;
76752;SDS011;65687;51.308;16.916;2023-06-01T05:37:21;7.40;;;4.10;;
76752;SDS011;65687;51.308;16.916;2023-06-01T05:42:23;6.30;;;3.90;;
76752;SDS011;65687;51.308;16.916;2023-06-01T05:47:25;7.20;;;3.60;;
76752;SDS011;65687;51.308;16.916;2023-06-01T05:52:26;7.40;;;3.70;;
76752;SDS011;65687;51.308;16.916;2023-06-01T05:57:28;7.10;;;3.60;;
76752;SDS011;65687;51.308;16.916;2023-06-01T06:07:32;5.60;;;3.60;;
76752;SDS011;65687;51.308;16.916;2023-06-01T06:12:34;7.80;;;4.00;;
76752;SDS011;65687;51.308;16.916;2023-06-01T06:17:36;7.10;;;4.10;;
76752;SDS011;65687;51.308;16.916;2023-06-01T06:27:39;8.30;;;4.10;;
76752;SDS011;65687;51.308;16.916;2023-06-01T06:37:43;5.10;;;2.80;;
76752;SDS011;65687;51.308;16.916;2023-06-01T06:42:45;5.10;;;3.10;;
76752;SDS011;65687;51.308;16.916;2023-06-01T06:47:47;6.50;;;3.20;;
76752;SDS011;65687;51.308;16.916;2023-06-01T06:52:50;5.30;;;3.40;;
76752;SDS011;65687;51.308;16.916;2023-06-01T06:57:51;5.00;;;2.90;;
76752;SDS011;65687;51.308;16.916;2023-06-01T07:02:53;4.50;;;2.80;;
76752;SDS011;65687;51.308;16.916;2023-06-01T07:07:56;5.60;;;2.90;;
76752;SDS011;65687;51.308;16.916;2023-06-01T07:12:59;7.00;;;3.20;;
76752;SDS011;65687;51.308;16.916;2023-06-01T07:18:00;3.50;;;2.40;;
76752;SDS011;65687;51.308;16.916;2023-06-01T07:23:02;3.40;;;2.40;;
76752;SDS011;65687;51.308;16.916;2023-06-01T07:28:03;5.60;;;2.50;;
76752;SDS011;65687;51.308;16.916;2023-06-01T07:33:08;3.80;;;2.30;;
76752;SDS011;65687;51.308;16.916;2023-06-01T07:38:11;4.50;;;2.60;;
76752;SDS011;65687;51.308;16.916;2023-06-01T07:43:13;2.90;;;2.10;;
76752;SDS011;65687;51.308;16.916;2023-06-01T07:48:14;4.10;;;2.60;;
76752;SDS011;65687;51.308;16.916;2023-06-01T07:53:16;4.80;;;2.10;;
76752;SDS011;65687;51.308;16.916;2023-06-01T07:58:19;3.80;;;2.60;;
76752;SDS011;65687;51.308;16.916;2023-06-01T08:03:22;3.70;;;2.20;;
76752;SDS011;65687;51.308;16.916;2023-06-01T08:08:27;4.40;;;2.40;;
76752;SDS011;65687;51.308;16.916;2023-06-01T08:13:30;4.50;;;1.90;;
76752;SDS011;65687;51.308;16.916;2023-06-01T08:18:31;3.00;;;1.90;;
76752;SDS011;65687;51.308;16.916;2023-06-01T08:23:33;3.50;;;2.00;;
76752;SDS011;65687;51.308;16.916;2023-06-01T08:28:35;3.30;;;2.00;;
76752;SDS011;65687;51.308;16.916;2023-06-01T08:33:39;2.60;;;1.70;;
76752;SDS011;65687;51.308;16.916;2023-06-01T08:38:41;2.80;;;1.80;;
76752;SDS011;65687;51.308;16.916;2023-06-01T08:43:43;4.40;;;1.80;;
76752;SDS011;65687;51.308;16.916;2023-06-01T08:48:56;3.00;;;2.00;;
76752;SDS011;65687;51.308;16.916;2023-06-01T08:54:02;3.80;;;1.80;;
76752;SDS011;65687;51.308;16.916;2023-06-01T08:59:12;2.50;;;1.90;;
76752;SDS011;65687;51.308;16.916;2023-06-01T09:04:16;2.60;;;1.70;;
76752;SDS011;65687;51.308;16.916;2023-06-01T09:09:18;4.50;;;2.00;;
76752;SDS011;65687;51.308;16.916;2023-06-01T09:14:21;3.50;;;1.90;;
76752;SDS011;65687;51.308;16.916;2023-06-01T09:19:24;3.20;;;1.80;;
76752;SDS011;65687;51.308;16.916;2023-06-01T09:24:41;4.20;;;2.00;;
76752;SDS011;65687;51.308;16.916;2023-06-01T09:29:57;4.20;;;2.00;;
76752;SDS011;65687;51.308;16.916;2023-06-01T09:35:02;2.90;;;1.70;;
76752;SDS011;65687;51.308;16.916;2023-06-01T09:40:18;2.90;;;1.80;;
76752;SDS011;65687;51.308;16.916;2023-06-01T09:45:22;3.00;;;2.10;;
76752;SDS011;65687;51.308;16.916;2023-06-01T09:50:36;6.10;;;2.20;;
76752;SDS011;65687;51.308;16.916;2023-06-01T10:00:59;5.00;;;2.30;;
76752;SDS011;65687;51.308;16.916;2023-06-01T10:06:02;5.60;;;2.20;;
76752;SDS011;65687;51.308;16.916;2023-06-01T10:11:06;2.90;;;1.80;;
76752;SDS011;65687;51.308;16.916;2023-06-01T10:16:09;3.10;;;2.10;;
76752;SDS011;65687;51.308;16.916;2023-06-01T10:21:14;3.30;;;2.00;;
76752;SDS011;65687;51.308;16.916;2023-06-01T10:26:16;3.20;;;2.30;;
76752;SDS011;65687;51.308;16.916;2023-06-01T10:31:39;3.00;;;2.20;;
76752;SDS011;65687;51.308;16.916;2023-06-01T10:41:57;4.00;;;2.30;;
76752;SDS011;65687;51.308;16.916;2023-06-01T10:47:00;3.50;;;2.20;;
76752;SDS011;65687;51.308;16.916;2023-06-01T10:57:30;2.90;;;2.00;;
76752;SDS011;65687;51.308;16.916;2023-06-01T11:02:32;3.70;;;2.10;;
76752;SDS011;65687;51.308;16.916;2023-06-01T11:07:34;5.20;;;2.30;;
76752;SDS011;65687;51.308;16.916;2023-06-01T11:24:00;4.20;;;2.20;;
76752;SDS011;65687;51.308;16.916;2023-06-01T11:29:06;3.40;;;2.40;;
76752;SDS011;65687;51.308;16.916;2023-06-01T11:34:11;3.70;;;2.20;;
76752;SDS011;65687;51.308;16.916;2023-06-01T11:39:21;5.40;;;2.80;;
76752;SDS011;65687;51.308;16.916;2023-06-01T11:44:25;4.60;;;2.60;;
76752;SDS011;65687;51.308;16.916;2023-06-01T11:49:27;6.20;;;2.80;;
76752;SDS011;65687;51.308;16.916;2023-06-01T11:54:29;4.50;;;2.50;;
76752;SDS011;65687;51.308;16.916;2023-06-01T12:04:40;4.30;;;2.40;;
76752;SDS011;65687;51.308;16.916;2023-06-01T12:09:41;3.50;;;2.30;;
76752;SDS011;65687;51.308;16.916;2023-06-01T12:14:43;3.20;;;2.20;;
76752;SDS011;65687;51.308;16.916;2023-06-01T12:19:48;3.20;;;2.10;;
76752;SDS011;65687;51.308;16.916;2023-06-01T12:24:50;4.40;;;2.50;;
76752;SDS011;65687;51.308;16.916;2023-06-01T12:29:51;4.70;;;2.60;;
76752;SDS011;65687;51.308;16.916;2023-06-01T12:35:02;3.10;;;2.20;;
76752;SDS011;65687;51.308;16.916;2023-06-01T12:40:07;4.50;;;2.40;;
76752;SDS011;65687;51.308;16.916;2023-06-01T12:45:10;4.00;;;2.40;;
76752;SDS011;65687;51.308;16.916;2023-06-01T12:50:12;4.00;;;2.20;;
76752;SDS011;65687;51.308;16.916;2023-06-01T12:55:14;4.30;;;2.70;;
76752;SDS011;65687;51.308;16.916;2023-06-01T13:00:16;4.60;;;2.60;;
76752;SDS011;65687;51.308;16.916;2023-06-01T13:05:18;4.30;;;2.40;;
76752;SDS011;65687;51.308;16.916;2023-06-01T13:10:20;3.20;;;2.40;;
76752;SDS011;65687;51.308;16.916;2023-06-01T13:15:21;4.20;;;2.30;;
76752;SDS011;65687;51.308;16.916;2023-06-01T13:20:23;3.60;;;2.30;;
76752;SDS011;65687;51.308;16.916;2023-06-01T13:25:24;4.80;;;2.40;;
76752;SDS011;65687;51.308;16.916;2023-06-01T13:30:26;4.00;;;2.50;;
76752;SDS011;65687;51.308;16.916;2023-06-01T13:35:30;4.10;;;2.60;;
76752;SDS011;65687;51.308;16.916;2023-06-01T13:40:33;5.00;;;2.70;;
76752;SDS011;65687;51.308;16.916;2023-06-01T13:45:36;3.70;;;2.80;;
76752;SDS011;65687;51.308;16.916;2023-06-01T13:50:37;4.80;;;2.70;;
76752;SDS011;65687;51.308;16.916;2023-06-01T13:55:40;4.20;;;3.00;;
76752;SDS011;65687;51.308;16.916;2023-06-01T14:00:42;4.10;;;2.80;;
76752;SDS011;65687;51.308;16.916;2023-06-01T14:05:43;4.60;;;2.50;;
76752;SDS011;65687;51.308;16.916;2023-06-01T14:10:45;5.90;;;2.50;;
76752;SDS011;65687;51.308;16.916;2023-06-01T14:15:46;4.60;;;2.60;;
76752;SDS011;65687;51.308;16.916;2023-06-01T14:20:48;4.40;;;2.70;;
76752;SDS011;65687;51.308;16.916;2023-06-01T14:25:50;5.50;;;3.20;;
76752;SDS011;65687;51.308;16.916;2023-06-01T14:30:52;5.80;;;3.20;;
76752;SDS011;65687;51.308;16.916;2023-06-01T14:35:54;3.90;;;2.60;;
76752;SDS011;65687;51.308;16.916;2023-06-01T14:40:56;4.90;;;2.90;;
76752;SDS011;65687;51.308;16.916;2023-06-01T14:45:57;6.30;;;3.20;;
76752;SDS011;65687;51.308;16.916;2023-06-01T14:50:59;3.80;;;2.70;;
76752;SDS011;65687;51.308;16.916;2023-06-01T14:56:01;5.70;;;3.20;;
76752;SDS011;65687;51.308;16.916;2023-06-01T15:01:04;5.50;;;3.10;;
76752;SDS011;65687;51.308;16.916;2023-06-01T15:06:06;5.00;;;3.20;;
76752;SDS011;65687;51.308;16.916;2023-06-01T15:11:08;4.50;;;3.40;;
76752;SDS011;65687;51.308;16.916;2023-06-01T15:16:09;5.70;;;3.40;;
76752;SDS011;65687;51.308;16.916;2023-06-01T15:21:11;5.00;;;3.40;;
76752;SDS011;65687;51.308;16.916;2023-06-01T15:26:13;5.20;;;3.40;;
76752;SDS011;65687;51.308;16.916;2023-06-01T15:31:15;4.90;;;3.50;;
76752;SDS011;65687;51.308;16.916;2023-06-01T15:36:17;8.10;;;3.70;;
76752;SDS011;65687;51.308;16.916;2023-06-01T15:41:19;5.20;;;3.40;;
76752;SDS011;65687;51.308;16.916;2023-06-01T15:46:21;5.70;;;4.00;;
76752;SDS011;65687;51.308;16.916;2023-06-01T15:51:22;4.90;;;3.10;;
76752;SDS011;65687;51.308;16.916;2023-06-01T15:56:25;4.80;;;3.40;;
76752;SDS011;65687;51.308;16.916;2023-06-01T16:02:00;5.80;;;3.50;;
76752;SDS011;65687;51.308;16.916;2023-06-01T16:07:07;5.00;;;3.30;;
76752;SDS011;65687;51.308;16.916;2023-06-01T16:12:08;5.60;;;3.50;;
76752;SDS011;65687;51.308;16.916;2023-06-01T16:17:10;5.70;;;3.20;;
76752;SDS011;65687;51.308;16.916;2023-06-01T16:22:11;5.30;;;3.40;;
76752;SDS011;65687;51.308;16.916;2023-06-01T16:27:14;4.60;;;3.20;;
76752;SDS011;65687;51.308;16.916;2023-06-01T16:32:16;5.30;;;3.60;;
76752;SDS011;65687;51.308;16.916;2023-06-01T16:37:18;4.80;;;3.20;;
76752;SDS011;65687;51.308;16.916;2023-06-01T16:42:20;6.60;;;3.30;;
76752;SDS011;65687;51.308;16.916;2023-06-01T16:47:22;5.90;;;3.10;;
76752;SDS011;65687;51.308;16.916;2023-06-01T16:52:24;4.60;;;3.00;;
76752;SDS011;65687;51.308;16.916;2023-06-01T16:57:26;5.10;;;3.30;;
76752;SDS011;65687;51.308;16.916;2023-06-01T17:02:31;4.80;;;3.10;;
76752;SDS011;65687;51.308;16.916;2023-06-01T17:07:33;4.90;;;3.50;;
76752;SDS011;65687;51.308;16.916;2023-06-01T17:12:35;4.50;;;2.90;;
76752;SDS011;65687;51.308;16.916;2023-06-01T17:17:37;5.20;;;3.40;;
76752;SDS011;65687;51.308;16.916;2023-06-01T17:22:40;6.10;;;3.30;;
76752;SDS011;65687;51.308;16.916;2023-06-01T17:27:42;4.50;;;3.00;;
76752;SDS011;65687;51.308;16.916;2023-06-01T17:32:47;4.70;;;2.70;;
76752;SDS011;65687;51.308;16.916;2023-06-01T17:37:49;4.60;;;3.40;;
76752;SDS011;65687;51.308;16.916;2023-06-01T17:42:52;6.40;;;3.10;;
76752;SDS011;65687;51.308;16.916;2023-06-01T17:47:54;5.60;;;3.10;;
76752;SDS011;65687;51.308;16.916;2023-06-01T17:52:56;6.30;;;3.40;;
76752;SDS011;65687;51.308;16.916;2023-06-01T17:57:58;4.80;;;3.40;;
76752;SDS011;65687;51.308;16.916;2023-06-01T18:03:00;5.10;;;3.10;;
76752;SDS011;65687;51.308;16.916;2023-06-01T18:08:02;6.30;;;3.70;;
76752;SDS011;65687;51.308;16.916;2023-06-01T18:13:04;4.60;;;3.20;;
76752;SDS011;65687;51.308;16.916;2023-06-01T18:18:06;6.80;;;3.20;;
76752;SDS011;65687;51.308;16.916;2023-06-01T18:23:08;4.40;;;3.20;;
76752;SDS011;65687;51.308;16.916;2023-06-01T18:28:10;5.30;;;3.00;;
76752;SDS011;65687;51.308;16.916;2023-06-01T18:33:12;4.30;;;3.00;;
76752;SDS011;65687;51.308;16.916;2023-06-01T18:38:14;4.60;;;3.10;;
76752;SDS011;65687;51.308;16.916;2023-06-01T18:43:18;4.90;;;3.00;;
76752;SDS011;65687;51.308;16.916;2023-06-01T18:48:20;6.30;;;3.50;;
76752;SDS011;65687;51.308;16.916;2023-06-01T18:53:24;7.30;;;3.40;;
76752;SDS011;65687;51.308;16.916;2023-06-01T18:58:26;7.00;;;3.60;;
76752;SDS011;65687;51.308;16.916;2023-06-01T19:03:29;6.10;;;4.10;;
76752;SDS011;65687;51.308;16.916;2023-06-01T19:08:31;5.30;;;3.30;;
76752;SDS011;65687;51.308;16.916;2023-06-01T19:13:41;5.20;;;3.40;;
76752;SDS011;65687;51.308;16.916;2023-06-01T19:18:48;6.90;;;3.60;;
76752;SDS011;65687;51.308;16.916;2023-06-01T19:23:57;5.70;;;3.40;;
76752;SDS011;65687;51.308;16.916;2023-06-01T19:29:02;6.10;;;3.70;;
76752;SDS011;65687;51.308;16.916;2023-06-01T19:34:07;6.40;;;3.50;;
76752;SDS011;65687;51.308;16.916;2023-06-01T19:44:31;5.90;;;3.60;;
76752;SDS011;65687;51.308;16.916;2023-06-01T19:49:38;6.90;;;3.40;;
76752;SDS011;65687;51.308;16.916;2023-06-01T19:54:43;8.10;;;3.50;;
76752;SDS011;65687;51.308;16.916;2023-06-01T19:59:45;5.90;;;3.10;;
76752;SDS011;65687;51.308;16.916;2023-06-01T20:04:47;6.10;;;3.70;;
76752;SDS011;65687;51.308;16.916;2023-06-01T20:09:49;6.20;;;3.80;;
76752;SDS011;65687;51.308;16.916;2023-06-01T20:14:51;6.20;;;4.00;;
76752;SDS011;65687;51.308;16.916;2023-06-01T20:19:53;6.00;;;3.80;;
76752;SDS011;65687;51.308;16.916;2023-06-01T20:24:56;6.40;;;4.20;;
76752;SDS011;65687;51.308;16.916;2023-06-01T20:30:03;6.50;;;4.10;;
76752;SDS011;65687;51.308;16.916;2023-06-01T20:35:21;6.30;;;4.40;;
76752;SDS011;65687;51.308;16.916;2023-06-01T20:50:51;7.40;;;4.90;;
76752;SDS011;65687;51.308;16.916;2023-06-01T20:56:00;9.80;;;5.60;;
76752;SDS011;65687;51.308;16.916;2023-06-01T21:01:03;8.80;;;5.70;;
76752;SDS011;65687;51.308;16.916;2023-06-01T21:06:05;7.10;;;5.20;;
76752;SDS011;65687;51.308;16.916;2023-06-01T21:11:07;9.20;;;5.30;;
76752;SDS011;65687;51.308;16.916;2023-06-01T21:16:08;10.90;;;6.70;;
76752;SDS011;65687;51.308;16.916;2023-06-01T21:26:13;7.90;;;5.80;;
76752;SDS011;65687;51.308;16.916;2023-06-01T21:31:18;9.40;;;5.60;;
76752;SDS011;65687;51.308;16.916;2023-06-01T21:36:21;10.00;;;5.50;;
76752;SDS011;65687;51.308;16.916;2023-06-01T21:41:22;7.80;;;5.20;;
76752;SDS011;65687;51.308;16.916;2023-06-01T21:46:24;8.30;;;5.20;;
76752;SDS011;65687;51.308;16.916;2023-06-01T21:51:26;10.20;;;5.10;;
76752;SDS011;65687;51.308;16.916;2023-06-01T21:56:29;6.60;;;4.70;;
76752;SDS011;65687;51.308;16.916;2023-06-01T22:01:30;7.20;;;5.40;;
76752;SDS011;65687;51.308;16.916;2023-06-01T22:06:32;7.10;;;5.10;;
76752;SDS011;65687;51.308;16.916;2023-06-01T22:11:34;8.20;;;5.60;;
76752;SDS011;65687;51.308;16.916;2023-06-01T22:16:35;7.90;;;5.50;;
76752;SDS011;65687;51.308;16.916;2023-06-01T22:21:37;8.80;;;5.20;;
76752;SDS011;65687;51.308;16.916;2023-06-01T22:26:39;9.10;;;5.50;;
76752;SDS011;65687;51.308;16.916;2023-06-01T22:31:40;9.80;;;5.10;;
76752;SDS011;65687;51.308;16.916;2023-06-01T22:36:42;7.40;;;4.80;;
76752;SDS011;65687;51.308;16.916;2023-06-01T22:41:43;6.90;;;4.70;;
76752;SDS011;65687;51.308;16.916;2023-06-01T22:46:45;9.00;;;5.70;;
76752;SDS011;65687;51.308;16.916;2023-06-01T22:56:49;7.90;;;5.10;;
76752;SDS011;65687;51.308;16.916;2023-06-01T23:01:50;8.70;;;4.90;;
76752;SDS011;65687;51.308;16.916;2023-06-01T23:06:52;8.90;;;4.50;;
76752;SDS011;65687;51.308;16.916;2023-06-01T23:11:55;8.80;;;4.70;;
76752;SDS011;65687;51.308;16.916;2023-06-01T23:16:57;6.40;;;4.40;;
76752;SDS011;65687;51.308;16.916;2023-06-01T23:22:02;9.40;;;5.30;;
76752;SDS011;65687;51.308;16.916;2023-06-01T23:27:04;6.40;;;4.70;;
76752;SDS011;65687;51.308;16.916;2023-06-01T23:32:06;6.50;;;4.40;;
76752;SDS011;65687;51.308;16.916;2023-06-01T23:42:14;8.10;;;5.10;;
76752;SDS011;65687;51.308;16.916;2023-06-01T23:47:16;6.10;;;3.90;;
76752;SDS011;65687;51.308;16.916;2023-06-01T23:57:19;6.90;;;4.00;;
